Time;durP1;ratioP1;P1;durP2;ratioP2;P2;SDS_P1;SDS_P2;PMS_P1;PMS_P2;Temp;Humidity;BMP_temperature;BMP_pressure;BME280_temperature;BME280_humidity;BME280_pressure;Samples;Min_cycle;Max_cycle;Signal;HPM_P1;HPM_P2
2023/09/19 00:00:57;;;;;;;;;1.25;1.25;;;;;19.14;57.91;100927.75;5017628;28;45473;-68
2023/09/19 00:03:22;;;;;;;;;0.75;0.75;;;;;19.19;58.07;100945.22;5027607;28;45297;-69
2023/09/19 00:05:50;;;;;;;;;1.00;1.00;;;;;19.13;57.83;100941.44;5025563;28;45581;-69
2023/09/19 00:08:15;;;;;;;;;0.00;0.00;;;;;19.09;57.46;100942.88;5035922;28;46682;-68
2023/09/19 00:10:41;;;;;;;;;1.00;1.00;;;;;19.01;57.32;100933.03;5032739;28;45323;-68
2023/09/19 00:13:07;;;;;;;;;0.25;0.25;;;;;19.07;57.55;100937.66;5029985;28;45622;-69
2023/09/19 00:15:43;;;;;;;;;0.00;0.00;;;;;19.00;57.61;100928.69;5013078;28;45393;-69
2023/09/19 00:18:08;;;;;;;;;0.50;0.50;;;;;19.05;57.34;100942.44;5012291;28;48206;-69
2023/09/19 00:20:38;;;;;;;;;0.50;0.50;;;;;18.93;57.18;100930.50;5029625;28;45241;-69
2023/09/19 00:23:04;;;;;;;;;1.00;1.00;;;;;18.99;57.20;100958.50;5041890;28;45347;-71
2023/09/19 00:25:29;;;;;;;;;0.25;0.25;;;;;18.55;57.11;100889.50;5016257;28;45612;-69
2023/09/19 00:27:55;;;;;;;;;1.00;1.00;;;;;18.84;57.44;100939.75;5028430;28;45422;-69
2023/09/19 00:30:21;;;;;;;;;1.00;0.00;;;;;18.95;57.58;100949.16;5019486;28;45500;-68
2023/09/19 00:32:48;;;;;;;;;2.00;0.50;;;;;18.87;57.83;100949.31;5025480;28;45575;-69
2023/09/19 00:35:15;;;;;;;;;2.00;0.25;;;;;18.83;57.76;100952.38;5031098;28;45493;-69
2023/09/19 00:37:40;;;;;;;;;1.75;0.25;;;;;18.77;57.92;100946.91;5030925;28;47396;-69
2023/09/19 00:40:11;;;;;;;;;1.25;1.25;;;;;18.77;58.19;100952.31;5007808;28;46096;-68
2023/09/19 00:42:37;;;;;;;;;0.25;0.25;;;;;18.77;58.32;100946.91;5022010;28;45570;-69
2023/09/19 00:45:03;;;;;;;;;0.50;0.50;;;;;18.40;58.77;100905.69;5028165;28;45451;-70
2023/09/19 00:47:29;;;;;;;;;0.00;0.00;;;;;18.73;58.88;100961.78;5026616;28;46529;-69
2023/09/19 00:49:55;;;;;;;;;0.00;0.00;;;;;18.76;58.97;100973.00;5031457;28;45569;-67
2023/09/19 00:52:21;;;;;;;;;3.00;1.00;;;;;18.71;58.74;100963.84;5016851;28;45601;-68
2023/09/19 00:54:47;;;;;;;;;2.00;0.25;;;;;18.68;59.13;100959.69;5035821;28;45610;-68
2023/09/19 00:57:14;;;;;;;;;0.00;0.00;;;;;18.72;59.24;100970.91;5036112;28;46005;-69
2023/09/19 00:59:40;;;;;;;;;1.00;1.00;;;;;18.65;59.59;100968.16;5019057;28;45475;-69
2023/09/19 01:02:06;;;;;;;;;1.00;0.50;;;;;18.52;59.78;100963.41;5021012;28;45221;-69
2023/09/19 01:04:32;;;;;;;;;4.25;0.50;;;;;18.57;59.73;100979.00;5021407;28;47004;-68
2023/09/19 01:06:57;;;;;;;;;0.25;0.25;;;;;18.53;60.22;100972.31;5024774;28;47050;-69
2023/09/19 01:09:23;;;;;;;;;0.00;0.00;;;;;18.52;60.41;100971.50;5023908;28;45397;-69
2023/09/19 01:11:53;;;;;;;;;2.00;0.00;;;;;18.54;60.61;100976.69;5036190;28;45254;-68
2023/09/19 01:14:43;;;;;;;;;0.25;0.25;;;;;18.44;61.06;100966.25;5023512;28;45479;-69
2023/09/19 01:20:48;;;;;;;;;0.00;0.00;;;;;18.43;61.16;100983.41;5025781;28;45539;-68
2023/09/19 01:23:23;;;;;;;;;1.50;0.00;;;;;18.40;61.03;100982.94;5025537;28;45203;-68
2023/09/19 01:26:10;;;;;;;;;0.25;0.00;;;;;18.41;61.31;100988.13;5024110;28;45482;-68
2023/09/19 01:29:29;;;;;;;;;1.25;1.00;;;;;18.44;61.16;100985.09;5017539;28;46538;-68
2023/09/19 01:32:01;;;;;;;;;2.00;1.00;;;;;18.47;61.12;100976.63;4991966;28;45479;-68
2023/09/19 01:34:26;;;;;;;;;2.25;1.00;;;;;18.47;60.78;100973.94;5017520;28;45453;-68
2023/09/19 01:36:52;;;;;;;;;2.00;0.00;;;;;18.40;61.11;100973.00;5017377;28;45493;-70
2023/09/19 01:39:18;;;;;;;;;1.00;1.00;;;;;18.40;61.14;100989.16;5028453;28;45654;-69
2023/09/19 01:42:12;;;;;;;;;1.50;0.25;;;;;18.42;60.97;100986.25;5035260;28;45380;-69
2023/09/19 01:44:47;;;;;;;;;1.50;0.00;;;;;18.41;61.17;100985.44;5033621;28;45446;-70
2023/09/19 01:47:28;;;;;;;;;0.00;0.00;;;;;18.40;60.85;100993.69;5019982;28;45398;-69
2023/09/19 01:50:21;;;;;;;;;0.75;0.00;;;;;18.32;60.59;100981.19;5021663;28;46754;-69
2023/09/19 01:53:00;;;;;;;;;0.25;0.25;;;;;18.31;60.99;100981.38;5032447;28;45400;-69
2023/09/19 01:55:28;;;;;;;;;1.00;1.00;;;;;18.27;60.71;100983.63;5009743;28;45435;-69
2023/09/19 01:58:07;;;;;;;;;0.00;0.00;;;;;18.30;60.77;100985.09;5033899;28;45234;-69
2023/09/19 02:00:36;;;;;;;;;1.00;1.00;;;;;18.23;61.08;100991.25;5030989;28;45626;-68
2023/09/19 02:03:03;;;;;;;;;1.75;1.75;;;;;18.24;60.68;100989.41;5029019;28;45283;-68
2023/09/19 02:05:28;;;;;;;;;1.25;1.00;;;;;18.16;60.68;100978.72;5002032;28;45464;-67
2023/09/19 02:07:54;;;;;;;;;0.00;0.00;;;;;18.24;60.81;100997.47;5032904;28;45491;-70
2023/09/19 02:10:20;;;;;;;;;2.50;1.00;;;;;18.24;60.80;101005.53;5023954;28;46462;-69
2023/09/19 02:12:45;;;;;;;;;1.00;1.00;;;;;18.09;60.78;100991.25;5026294;28;45815;-69
2023/09/19 02:18:34;;;;;;;;;0.00;0.00;;;;;18.19;60.74;100999.88;5020530;28;45520;-68
2023/09/19 02:21:00;;;;;;;;;0.25;0.25;;;;;18.16;60.63;101002.94;5026121;28;46616;-68
2023/09/19 02:23:26;;;;;;;;;1.00;0.75;;;;;18.12;61.14;100999.78;5026738;28;45309;-68
2023/09/19 02:25:52;;;;;;;;;0.25;0.25;;;;;18.05;61.21;100995.34;5019278;28;45464;-69
2023/09/19 02:28:18;;;;;;;;;0.00;0.00;;;;;18.00;61.52;100993.19;5026820;28;45475;-68
2023/09/19 02:30:43;;;;;;;;;2.00;2.00;;;;;18.02;61.24;100999.25;5019260;28;47481;-68
2023/09/19 02:33:08;;;;;;;;;1.75;1.50;;;;;17.99;61.63;100986.16;5018985;28;52872;-69
2023/09/19 02:35:36;;;;;;;;;4.00;1.00;;;;;17.99;61.50;100990.69;5027878;28;45212;-69
2023/09/19 02:38:03;;;;;;;;;0.00;0.00;;;;;18.02;61.58;101003.75;5033720;28;45473;-69
2023/09/19 02:40:28;;;;;;;;;0.00;0.00;;;;;18.00;61.75;101008.50;5018870;28;47459;-69
2023/09/19 02:42:55;;;;;;;;;1.75;1.75;;;;;17.94;61.67;101008.22;5016656;28;45436;-69
2023/09/19 02:45:22;;;;;;;;;3.75;2.50;;;;;17.96;61.68;100999.16;5026985;28;45381;-69
2023/09/19 02:47:48;;;;;;;;;0.00;0.00;;;;;17.87;61.59;100987.66;5030328;28;45323;-69
2023/09/19 02:50:15;;;;;;;;;1.00;1.00;;;;;17.92;61.74;101002.22;5037618;28;46616;-69
2023/09/19 02:52:45;;;;;;;;;3.00;0.25;;;;;17.66;61.76;100947.19;5003699;28;46813;-69
2023/09/19 02:55:19;;;;;;;;;1.25;1.25;;;;;17.97;61.72;101007.03;5023810;28;45547;-69
2023/09/19 02:57:48;;;;;;;;;3.00;1.25;;;;;17.95;61.71;100998.31;5029535;28;45316;-68
2023/09/19 03:00:14;;;;;;;;;1.00;1.00;;;;;17.88;61.86;100995.53;5018557;28;46475;-69
2023/09/19 03:02:41;;;;;;;;;3.00;0.25;;;;;17.94;61.98;100996.63;5028458;28;45546;-69
2023/09/19 03:05:07;;;;;;;;;1.00;0.00;;;;;17.91;61.63;100994.31;5018662;28;45625;-69
2023/09/19 03:07:33;;;;;;;;;0.25;0.25;;;;;17.77;61.66;100971.78;5018976;28;45595;-68
2023/09/19 03:09:59;;;;;;;;;2.00;1.00;;;;;17.90;61.64;100990.81;5029339;28;45948;-69
2023/09/19 03:12:28;;;;;;;;;0.75;0.25;;;;;17.92;61.70;100991.44;5032049;28;45372;-68
2023/09/19 03:14:54;;;;;;;;;1.75;0.50;;;;;17.89;61.70;100991.81;5019820;28;45286;-69
2023/09/19 03:17:20;;;;;;;;;1.00;1.00;;;;;17.92;61.38;101002.22;5030748;28;45405;-69
2023/09/19 03:19:46;;;;;;;;;1.00;1.00;;;;;17.91;61.53;100989.78;5022435;28;45616;-74
2023/09/19 03:22:12;;;;;;;;;5.00;5.00;;;;;17.91;61.39;100995.16;5017952;28;45335;-68
2023/09/19 03:24:37;;;;;;;;;0.25;0.25;;;;;17.81;61.47;100977.63;5034624;28;45519;-69
2023/09/19 03:27:03;;;;;;;;;2.00;2.00;;;;;17.89;61.67;100986.44;5001769;28;45241;-69
2023/09/19 03:29:28;;;;;;;;;3.25;0.75;;;;;17.87;61.76;100998.41;5028898;28;46636;-68
2023/09/19 03:31:54;;;;;;;;;2.00;1.00;;;;;17.55;61.38;100941.25;5026913;28;45520;-69
2023/09/19 03:34:20;;;;;;;;;1.50;1.50;;;;;17.82;61.52;101001.66;5026595;28;45376;-68
2023/09/19 03:36:45;;;;;;;;;0.00;0.00;;;;;17.83;61.80;101003.34;5018195;28;45381;-68
2023/09/19 03:39:11;;;;;;;;;22.00;21.33;;;;;17.76;61.74;100980.88;5028977;28;46899;-69
2023/09/19 03:41:36;;;;;;;;;2.50;1.50;;;;;17.46;61.31;100936.97;5037501;28;45461;-69
2023/09/19 03:44:02;;;;;;;;;0.50;0.50;;;;;17.75;61.33;100981.88;5030157;28;45360;-69
2023/09/19 03:46:28;;;;;;;;;2.00;1.67;;;;;17.79;61.67;100991.25;5036284;28;45517;-69
2023/09/19 03:48:54;;;;;;;;;3.25;1.00;;;;;17.74;61.80;100993.66;5024492;28;45741;-69
2023/09/19 03:51:20;;;;;;;;;0.25;0.00;;;;;17.45;61.46;100942.53;5024663;28;45349;-69
2023/09/19 03:53:45;;;;;;;;;1.00;0.00;;;;;17.77;61.55;101001.34;5027022;28;45391;-69
2023/09/19 03:56:10;;;;;;;;;0.75;0.75;;;;;17.82;61.41;101000.81;5026322;28;45439;-69
2023/09/19 03:58:39;;;;;;;;;3.50;0.25;;;;;17.79;61.17;100990.41;5039415;28;55602;-69
2023/09/19 04:01:06;;;;;;;;;1.00;1.00;;;;;17.68;61.31;100961.31;5036648;28;45430;-69
2023/09/19 04:03:45;;;;;;;;;2.00;1.00;;;;;17.89;61.19;100986.44;5029443;28;45468;-69
2023/09/19 04:06:14;;;;;;;;;2.00;2.00;;;;;17.52;61.53;100924.66;5025185;28;45642;-70
2023/09/19 04:08:40;;;;;;;;;2.00;2.00;;;;;17.89;61.35;100997.19;5021361;28;46785;-69
2023/09/19 04:11:05;;;;;;;;;2.75;1.00;;;;;17.82;61.00;100995.41;5026347;28;45261;-69
2023/09/19 04:13:31;;;;;;;;;1.33;1.33;;;;;17.49;61.29;100935.78;5029878;28;45258;-69
2023/09/19 04:15:56;;;;;;;;;0.00;0.00;;;;;17.72;61.41;100974.19;5025316;28;45345;-68
2023/09/19 04:18:23;;;;;;;;;2.50;1.00;;;;;17.72;61.52;100984.13;5029096;28;45959;-68
2023/09/19 04:20:52;;;;;;;;;0.25;0.25;;;;;17.28;61.56;100906.94;5024983;28;45274;-69
2023/09/19 04:23:19;;;;;;;;;2.50;1.75;;;;;17.62;61.60;100973.63;5035647;28;45450;-69
2023/09/19 04:25:45;;;;;;;;;1.75;1.75;;;;;17.58;61.48;100962.38;5025089;28;45505;-69
2023/09/19 04:28:10;;;;;;;;;1.75;1.00;;;;;17.69;60.94;100982.63;5021722;28;46337;-69
2023/09/19 04:30:36;;;;;;;;;3.25;1.00;;;;;17.43;60.87;100950.78;5019904;28;45353;-68
2023/09/19 04:33:02;;;;;;;;;0.50;0.00;;;;;17.69;61.03;100990.72;5036109;28;45361;-69
2023/09/19 04:35:29;;;;;;;;;2.00;2.00;;;;;17.66;61.34;100988.34;5037250;28;45506;-69
2023/09/19 04:37:54;;;;;;;;;1.25;0.25;;;;;17.64;61.06;100995.78;5036528;28;45733;-69
2023/09/19 04:40:20;;;;;;;;;1.00;1.00;;;;;17.66;61.21;100980.28;5022380;28;45252;-69
2023/09/19 04:42:52;;;;;;;;;1.00;1.00;;;;;17.62;61.12;100984.38;5024941;28;45333;-68
2023/09/19 04:45:19;;;;;;;;;0.00;0.00;;;;;17.61;61.03;100988.03;5022169;28;45457;-69
2023/09/19 04:47:45;;;;;;;;;1.00;1.00;;;;;17.20;61.07;100932.00;5017188;28;46518;-70
2023/09/19 04:50:11;;;;;;;;;0.75;0.75;;;;;17.55;61.34;100984.25;5027817;28;45388;-68
2023/09/19 04:52:39;;;;;;;;;0.50;0.50;;;;;17.46;61.16;100979.16;5026792;28;45246;-69
2023/09/19 04:55:05;;;;;;;;;3.67;3.67;;;;;17.46;62.04;100981.84;5025783;28;45280;-69
2023/09/19 04:57:31;;;;;;;;;1.00;1.00;;;;;17.49;62.13;101001.13;5027581;28;45904;-70
2023/09/19 04:59:57;;;;;;;;;2.75;2.00;;;;;17.41;62.34;100993.13;5024842;28;45424;-69
2023/09/19 05:02:22;;;;;;;;;1.00;1.00;;;;;17.42;62.18;101004.69;5028158;28;45345;-69
2023/09/19 05:04:48;;;;;;;;;2.33;1.00;;;;;17.41;62.36;100997.66;5028405;28;46312;-70
2023/09/19 05:07:13;;;;;;;;;2.33;1.33;;;;;17.47;62.08;101013.91;5020673;28;45952;-69
2023/09/19 05:09:38;;;;;;;;;3.25;1.00;;;;;17.42;62.22;101007.38;5025469;28;58849;-71
2023/09/19 05:12:04;;;;;;;;;2.00;1.00;;;;;17.14;62.43;100967.69;5037044;28;46009;-69
2023/09/19 05:14:29;;;;;;;;;3.75;2.25;;;;;17.39;62.36;101015.81;5024482;28;45298;-70
2023/09/19 05:16:55;;;;;;;;;4.00;1.50;;;;;17.37;62.17;101007.09;5030549;28;47322;-70
2023/09/19 05:19:20;;;;;;;;;2.00;1.00;;;;;17.37;62.66;101010.63;5034546;28;45470;-70
2023/09/19 05:21:46;;;;;;;;;1.25;1.25;;;;;17.38;62.44;101008.78;5018407;28;45511;-69
2023/09/19 05:24:13;;;;;;;;;3.75;2.75;;;;;17.13;62.99;100973.22;5035465;28;45436;-71
2023/09/19 05:26:39;;;;;;;;;3.00;2.00;;;;;17.28;62.37;100998.28;5026456;28;45732;-70
2023/09/19 05:29:07;;;;;;;;;1.50;1.50;;;;;17.38;62.50;101016.84;5024118;28;45539;-69
2023/09/19 05:31:33;;;;;;;;;2.75;1.00;;;;;17.10;62.68;100982.50;5019381;28;45262;-69
2023/09/19 05:34:00;;;;;;;;;2.50;2.50;;;;;17.36;62.22;101022.41;5040031;28;45523;-69
2023/09/19 05:36:26;;;;;;;;;3.00;2.00;;;;;17.30;62.23;101018.59;5019398;28;46477;-69
2023/09/19 05:38:53;;;;;;;;;1.00;1.00;;;;;17.38;62.54;101024.91;5028735;28;56388;-68
2023/09/19 05:41:18;;;;;;;;;1.00;1.00;;;;;17.17;62.12;100991.50;5021280;28;45522;-68
2023/09/19 05:43:44;;;;;;;;;2.00;2.00;;;;;17.37;62.47;101025.91;5027155;28;45437;-72
2023/09/19 05:46:09;;;;;;;;;3.00;1.25;;;;;17.41;62.48;101041.50;5031881;28;45603;-68
2023/09/19 05:48:34;;;;;;;;;3.25;0.75;;;;;17.45;62.24;101042.84;5019123;28;45505;-73
2023/09/19 05:51:01;;;;;;;;;1.25;1.25;;;;;17.27;61.98;101007.38;5025829;28;56334;-70
2023/09/19 05:53:26;;;;;;;;;2.25;1.25;;;;;17.44;62.78;101040.31;5042643;28;45631;-70
2023/09/19 05:55:53;;;;;;;;;4.00;1.00;;;;;17.43;62.31;101042.19;5018772;28;46913;-69
2023/09/19 05:58:19;;;;;;;;;3.00;2.00;;;;;17.48;62.33;101055.06;5032125;28;45449;-70
2023/09/19 06:00:47;;;;;;;;;1.00;1.00;;;;;17.26;62.42;101017.28;5027265;28;45261;-69
2023/09/19 06:03:14;;;;;;;;;3.50;2.00;;;;;17.55;62.10;101048.78;5029218;28;45432;-70
2023/09/19 06:05:41;;;;;;;;;1.75;0.75;;;;;17.54;62.09;101052.47;5028600;28;47336;-69
2023/09/19 06:08:07;;;;;;;;;1.00;1.00;;;;;17.56;61.73;101052.28;5043977;28;45411;-69
2023/09/19 06:10:34;;;;;;;;;3.67;2.33;;;;;17.60;62.86;101053.59;5020660;28;45697;-69
2023/09/19 06:13:04;;;;;;;;;2.00;1.00;;;;;17.58;61.86;101061.00;5016910;28;45654;-69
2023/09/19 06:15:32;;;;;;;;;1.00;1.00;;;;;17.53;61.94;101034.69;5021680;28;47391;-68
2023/09/19 06:17:59;;;;;;;;;3.00;1.50;;;;;17.66;61.72;101046.69;5024240;28;45575;-70
2023/09/19 06:20:26;;;;;;;;;3.00;2.00;;;;;17.82;61.56;101055.47;5029904;28;45255;-69
2023/09/19 06:22:52;;;;;;;;;1.75;1.75;;;;;17.89;61.35;101067.13;5024872;28;45650;-71
2023/09/19 06:25:21;;;;;;;;;5.67;3.00;;;;;17.87;61.15;101052.22;5026871;28;45502;-69
2023/09/19 06:27:53;;;;;;;;;3.00;2.00;;;;;17.97;61.16;101060.81;5037947;28;45372;-69
2023/09/19 06:30:18;;;;;;;;;5.00;4.00;;;;;18.05;60.75;101065.31;5026008;28;45278;-71
2023/09/19 06:32:44;;;;;;;;;3.00;1.67;;;;;17.96;60.28;101036.81;5036896;28;45356;-70
2023/09/19 06:35:11;;;;;;;;;2.50;2.00;;;;;17.92;60.37;101036.34;5013631;28;48023;-68
2023/09/19 06:37:40;;;;;;;;;2.00;1.25;;;;;18.04;59.94;101042.13;5020694;28;45413;-70
2023/09/19 06:40:19;;;;;;;;;3.75;2.25;;;;;18.22;60.08;101067.63;5034015;28;45447;-70
2023/09/19 06:42:46;;;;;;;;;2.25;1.00;;;;;18.31;59.50;101065.66;5030402;28;45423;-70
2023/09/19 06:45:17;;;;;;;;;0.75;0.75;;;;;18.31;59.62;101064.81;5023016;28;47345;-69
2023/09/19 06:47:43;;;;;;;;;4.00;2.75;;;;;18.36;59.53;101078.56;5019379;28;45250;-70
2023/09/19 06:50:13;;;;;;;;;2.50;1.00;;;;;18.40;58.99;101072.59;5021746;28;45600;-70
2023/09/19 06:52:40;;;;;;;;;1.25;1.25;;;;;18.43;58.90;101069.56;5012856;28;45226;-69
2023/09/19 06:55:06;;;;;;;;;2.25;2.25;;;;;18.59;58.88;101073.06;5020877;28;47491;-78
2023/09/19 06:57:32;;;;;;;;;3.00;1.00;;;;;18.78;58.63;101056.31;5029728;28;45239;-72
2023/09/19 06:59:57;;;;;;;;;0.25;0.00;;;;;19.00;57.39;101059.88;5034725;28;45360;-71
2023/09/19 07:02:22;;;;;;;;;14.00;12.00;;;;;19.32;56.87;101066.63;5028785;28;45228;-70
2023/09/19 07:04:49;;;;;;;;;3.00;1.50;;;;;19.64;55.83;101062.59;5036934;28;46570;-70
2023/09/19 07:07:15;;;;;;;;;1.00;1.00;;;;;19.98;54.63;101064.47;5021089;28;45433;-70
2023/09/19 07:09:42;;;;;;;;;4.00;2.50;;;;;20.10;53.56;101014.31;5029335;28;45310;-71
2023/09/19 07:12:07;;;;;;;;;1.75;0.75;;;;;20.87;52.79;101059.97;5029388;28;45341;-70
2023/09/19 07:14:33;;;;;;;;;0.75;0.75;;;;;21.20;51.99;101065.41;5033826;28;45638;-70
2023/09/19 07:16:59;;;;;;;;;3.00;3.00;;;;;21.54;50.67;101066.31;5037306;28;45458;-70
2023/09/19 07:19:28;;;;;;;;;4.00;3.00;;;;;21.75;49.63;101067.97;5028082;28;45585;-70
2023/09/19 07:21:53;;;;;;;;;4.00;2.00;;;;;22.04;49.58;101067.56;5021229;28;45560;-72
2023/09/19 07:24:19;;;;;;;;;1.00;1.00;;;;;22.12;48.51;101042.13;5026655;28;46486;-71
2023/09/19 07:26:45;;;;;;;;;1.00;1.00;;;;;22.35;48.41;101060.59;5016114;28;45701;-70
2023/09/19 07:29:11;;;;;;;;;2.50;2.50;;;;;22.33;48.23;101043.72;5009423;28;45478;-70
2023/09/19 07:31:36;;;;;;;;;1.00;1.00;;;;;22.30;47.26;101039.56;5024011;28;45606;-73
2023/09/19 07:34:03;;;;;;;;;1.00;1.00;;;;;22.22;47.37;101030.81;5019977;28;46869;-74
2023/09/19 07:36:29;;;;;;;;;1.75;1.00;;;;;22.24;47.49;101012.50;5031024;28;45990;-72
2023/09/19 07:38:57;;;;;;;;;1.00;1.00;;;;;22.67;47.28;101056.94;5036444;28;45341;-73
2023/09/19 07:41:23;;;;;;;;;1.75;1.75;;;;;22.76;46.38;101054.78;5018723;28;45499;-74
2023/09/19 07:43:49;;;;;;;;;2.50;1.50;;;;;22.69;46.38;101043.97;5023470;28;45649;-74
2023/09/19 07:46:14;;;;;;;;;1.00;1.00;;;;;22.70;46.63;101033.97;5025412;28;45511;-75
2023/09/19 07:48:40;;;;;;;;;1.50;1.50;;;;;22.77;46.81;101035.59;5020253;28;45588;-79
2023/09/19 07:51:06;;;;;;;;;2.25;1.00;;;;;22.62;46.05;101021.47;5017386;28;45619;-77
2023/09/19 07:53:36;;;;;;;;;1.50;1.00;;;;;22.44;45.22;100992.41;5029445;28;46417;-74
2023/09/19 07:56:03;;;;;;;;;4.00;1.00;;;;;22.61;45.83;101044.22;5033018;28;45462;-74
2023/09/19 07:58:29;;;;;;;;;1.50;1.00;;;;;22.42;45.79;101040.53;5022863;28;45339;-74
2023/09/19 08:00:54;;;;;;;;;1.75;1.75;;;;;22.40;46.05;101058.91;5016576;28;46193;-73
2023/09/19 08:03:20;;;;;;;;;3.50;2.00;;;;;21.80;46.10;101001.34;5022735;28;59890;-75
2023/09/19 08:05:45;;;;;;;;;2.00;2.00;;;;;22.04;46.79;101045.91;5020456;28;45590;-73
2023/09/19 08:08:14;;;;;;;;;1.00;0.00;;;;;22.10;47.17;101064.00;5020273;28;45422;-76
2023/09/19 08:10:42;;;;;;;;;1.00;0.25;;;;;22.07;46.65;101056.31;5017155;28;45603;-74
2023/09/19 08:13:11;;;;;;;;;3.00;2.00;;;;;22.06;47.36;101054.63;5020610;28;45619;-72
2023/09/19 08:15:43;;;;;;;;;0.25;0.25;;;;;21.94;47.08;101037.34;5015623;28;45405;-72
2023/09/19 08:18:11;;;;;;;;;2.25;1.25;;;;;21.98;47.16;101045.88;5025654;28;45634;-71
2023/09/19 08:20:37;;;;;;;;;3.75;3.00;;;;;21.36;47.35;100939.81;5027414;28;45618;-73
2023/09/19 08:23:03;;;;;;;;;1.75;1.00;;;;;21.82;47.44;101025.47;5007904;28;48055;-73
2023/09/19 08:25:29;;;;;;;;;2.00;2.00;;;;;22.03;47.56;101065.03;5035496;28;45242;-73
2023/09/19 08:27:57;;;;;;;;;3.00;0.00;;;;;21.97;47.40;101058.56;5029769;28;45399;-71
2023/09/19 08:30:23;;;;;;;;;4.75;2.00;;;;;21.93;47.76;101045.69;5026620;28;45559;-72
2023/09/19 08:32:59;;;;;;;;;0.75;0.75;;;;;22.20;47.09;101054.59;5024090;28;46523;-72
2023/09/19 08:35:24;;;;;;;;;2.50;1.00;;;;;22.30;46.99;101057.69;5010785;28;45581;-73
2023/09/19 08:37:50;;;;;;;;;2.00;1.00;;;;;22.18;47.23;101046.69;5027719;28;45905;-72
2023/09/19 08:40:16;;;;;;;;;1.00;1.00;;;;;22.52;47.10;101064.50;5020294;28;45358;-73
2023/09/19 08:42:53;;;;;;;;;1.75;1.75;;;;;22.54;46.31;101031.75;5015524;28;47483;-71
2023/09/19 08:45:23;;;;;;;;;0.25;0.25;;;;;23.13;46.24;101061.28;5037296;28;45309;-71
2023/09/19 08:48:14;;;;;;;;;2.00;1.00;;;;;23.60;45.08;101054.47;5031450;28;45548;-72
2023/09/19 08:50:47;;;;;;;;;1.00;1.00;;;;;24.14;43.59;101061.03;4998788;28;45613;-71
2023/09/19 08:53:20;;;;;;;;;2.75;2.50;;;;;24.61;43.06;101053.19;5030679;28;45591;-72
2023/09/19 08:55:48;;;;;;;;;1.00;1.00;;;;;25.05;42.50;101070.22;5037082;28;45793;-72
2023/09/19 08:58:19;;;;;;;;;1.50;1.00;;;;;25.34;41.76;101047.56;5023368;28;45563;-75
2023/09/19 09:00:49;;;;;;;;;2.00;1.75;;;;;25.74;40.50;101063.28;5020549;28;46326;-71
2023/09/19 09:03:19;;;;;;;;;2.25;1.25;;;;;25.62;40.08;101022.38;5019085;28;46513;-77
2023/09/19 09:05:46;;;;;;;;;2.25;2.00;;;;;25.93;40.08;101044.91;5022102;28;45494;-73
2023/09/19 09:08:13;;;;;;;;;3.00;1.00;;;;;26.05;39.93;101043.84;5029784;28;45520;-72
2023/09/19 09:10:40;;;;;;;;;0.25;0.25;;;;;26.06;39.55;101050.13;5029190;28;45431;-71
2023/09/19 09:13:06;;;;;;;;;2.25;2.00;;;;;25.98;39.66;101059.47;5036916;28;46485;-72
2023/09/19 09:15:36;;;;;;;;;1.00;1.00;;;;;25.98;40.23;101054.00;5021029;28;45248;-72
2023/09/19 09:18:03;;;;;;;;;0.50;0.50;;;;;26.20;39.69;101045.22;5023999;28;45474;-74
2023/09/19 09:20:29;;;;;;;;;1.00;1.00;;;;;26.66;38.96;101057.94;5023153;28;45400;-71
2023/09/19 09:23:00;;;;;;;;;1.00;1.00;;;;;27.08;37.73;101053.03;5027701;28;45649;-70
2023/09/19 09:25:56;;;;;;;;;1.00;1.00;;;;;27.51;36.35;101041.47;5016548;28;45413;-71
2023/09/19 09:28:23;;;;;;;;;1.00;1.00;;;;;27.93;36.15;101043.78;5023078;28;45579;-70
2023/09/19 09:30:50;;;;;;;;;2.00;1.00;;;;;28.55;35.58;101045.41;5032599;28;45424;-69
2023/09/19 09:33:16;;;;;;;;;1.25;1.25;;;;;29.28;34.33;101053.06;5018543;28;48255;-71
2023/09/19 09:36:06;;;;;;;;;1.00;1.00;;;;;29.85;32.83;101044.19;5003838;28;45610;-70
2023/09/19 09:38:48;;;;;;;;;0.25;0.25;;;;;30.51;31.84;101039.06;5025306;28;45365;-70
2023/09/19 09:41:26;;;;;;;;;1.75;1.75;;;;;30.74;31.03;101018.56;5022722;28;45530;-71
2023/09/19 09:43:53;;;;;;;;;0.75;0.50;;;;;31.27;29.67;101034.84;5026564;28;47135;-71
2023/09/19 09:51:59;;;;;;;;;2.75;1.00;;;;;31.93;28.11;101034.78;5026422;28;45380;-70
2023/09/19 09:54:36;;;;;;;;;1.00;1.00;;;;;31.97;28.33;101047.69;5034289;28;45975;-71
2023/09/19 09:57:17;;;;;;;;;1.50;0.00;;;;;31.48;28.63;100998.03;5031907;28;45333;-70
2023/09/19 09:59:50;;;;;;;;;5.50;5.50;;;;;31.29;28.59;101040.91;5033048;28;45450;-71
2023/09/19 10:02:24;;;;;;;;;1.00;1.00;;;;;30.80;28.97;101025.69;5024781;28;45454;-71
2023/09/19 10:04:58;;;;;;;;;1.50;0.25;;;;;30.22;29.06;101040.56;5042478;28;45645;-71
2023/09/19 10:08:08;;;;;;;;;1.00;1.00;;;;;29.59;30.32;101037.69;5031282;28;45321;-71
2023/09/19 10:13:13;;;;;;;;;0.00;0.00;;;;;28.16;32.41;101027.13;5032372;28;45497;-70
2023/09/19 10:15:42;;;;;;;;;1.50;1.00;;;;;27.44;32.75;101023.63;5032876;28;46217;-70
2023/09/19 10:18:11;;;;;;;;;0.75;0.75;;;;;26.93;34.04;101033.63;5023149;28;45891;-70
2023/09/19 10:20:41;;;;;;;;;0.00;0.00;;;;;26.54;34.55;101018.97;5025389;28;45675;-70
2023/09/19 10:23:12;;;;;;;;;3.00;1.00;;;;;26.13;35.25;101023.56;5022974;28;45638;-70
2023/09/19 10:25:40;;;;;;;;;1.50;1.50;;;;;25.68;36.16;100994.25;5022970;28;45657;-70
2023/09/19 10:28:10;;;;;;;;;0.50;0.50;;;;;25.50;36.66;101021.56;5027463;28;45452;-69
2023/09/19 10:30:44;;;;;;;;;0.50;0.50;;;;;25.18;37.68;101010.97;5026167;28;45610;-69
2023/09/19 10:33:14;;;;;;;;;1.75;1.75;;;;;24.90;37.83;101010.75;5022311;28;45385;-69
2023/09/19 10:35:43;;;;;;;;;0.25;0.25;;;;;24.64;38.24;101016.59;5024742;28;47466;-69
2023/09/19 10:38:14;;;;;;;;;0.25;0.25;;;;;24.14;38.67;100968.69;5024251;28;45887;-70
2023/09/19 10:40:43;;;;;;;;;0.00;0.00;;;;;24.10;39.15;100991.09;5034370;28;45543;-69
2023/09/19 10:43:33;;;;;;;;;3.00;1.00;;;;;24.03;39.30;101012.06;5033451;28;45558;-70
2023/09/19 10:46:07;;;;;;;;;0.00;0.00;;;;;23.95;39.62;100984.16;5024462;28;45577;-69
2023/09/19 10:48:32;;;;;;;;;1.75;0.25;;;;;23.97;40.07;101003.75;5023742;28;45337;-69
2023/09/19 10:51:04;;;;;;;;;0.25;0.25;;;;;23.91;39.89;101004.69;5018344;28;45487;-70
2023/09/19 10:53:48;;;;;;;;;0.00;0.00;;;;;23.76;39.82;100978.94;5031752;28;45479;-69
2023/09/19 10:56:21;;;;;;;;;4.25;2.50;;;;;24.12;40.42;101016.16;5018207;28;47360;-70
2023/09/19 10:58:49;;;;;;;;;0.00;0.00;;;;;24.11;40.08;100996.31;5035989;28;45410;-69
2023/09/19 11:01:15;;;;;;;;;1.00;1.00;;;;;24.23;40.17;101012.69;5008340;28;46956;-70
2023/09/19 11:03:43;;;;;;;;;1.50;0.25;;;;;24.15;40.50;101007.53;5025284;28;45521;-70
2023/09/19 11:06:17;;;;;;;;;2.33;2.00;;;;;24.23;40.51;101008.09;5017364;28;45750;-69
2023/09/19 11:08:56;;;;;;;;;2.00;0.25;;;;;23.90;40.47;100937.84;5031761;28;45435;-69
2023/09/19 11:11:53;;;;;;;;;2.00;1.00;;;;;24.24;40.34;101019.78;5028776;28;45449;-70
2023/09/19 11:14:25;;;;;;;;;0.25;0.25;;;;;24.21;39.55;101017.50;5018424;28;45658;-70
2023/09/19 11:17:15;;;;;;;;;1.75;1.75;;;;;24.23;40.24;101015.41;5021762;28;45683;-70
2023/09/19 11:22:52;;;;;;;;;1.25;0.75;;;;;24.03;40.42;100998.47;5022863;28;45569;-71
2023/09/19 11:25:30;;;;;;;;;0.75;0.00;;;;;22.80;40.58;100805.78;5034380;28;45464;-69
2023/09/19 11:28:17;;;;;;;;;2.00;1.00;;;;;23.95;40.50;101003.16;5017773;28;46463;-69
2023/09/19 11:30:48;;;;;;;;;2.00;0.00;;;;;23.83;40.35;100996.84;5012052;28;45337;-69
2023/09/19 11:33:21;;;;;;;;;1.00;1.00;;;;;23.67;40.94;100986.56;5025833;28;45377;-71
2023/09/19 11:36:06;;;;;;;;;1.75;0.00;;;;;23.62;41.22;100989.91;5028105;28;45502;-69
2023/09/19 11:41:20;;;;;;;;;5.00;3.00;;;;;23.76;42.00;100987.91;5023785;28;45238;-73
2023/09/19 11:43:46;;;;;;;;;3.50;1.00;;;;;23.70;41.89;100967.09;5020804;28;45489;-74
2023/09/19 11:46:16;;;;;;;;;2.00;1.00;;;;;23.95;41.47;100989.59;5010125;28;45505;-68
2023/09/19 11:48:44;;;;;;;;;1.00;1.00;;;;;24.08;41.19;100987.78;5024986;28;46901;-68
2023/09/19 11:51:26;;;;;;;;;2.00;0.00;;;;;23.88;41.07;100937.25;5003213;28;45579;-69
2023/09/19 11:53:56;;;;;;;;;4.00;3.00;;;;;24.26;41.04;100990.50;5030589;28;45525;-69